createdAt,value
2023-04-09T00:05:49.552Z,100.00
2023-04-09T00:15:53.116Z,100.00
2023-04-09T00:25:55.470Z,100.00
2023-04-09T00:36:00.058Z,100.00
2023-04-09T00:46:04.917Z,100.00
2023-04-09T00:56:11.149Z,100.00
2023-04-09T01:06:32.230Z,100.00
2023-04-09T01:16:36.272Z,100.00
2023-04-09T01:26:45.241Z,100.00
2023-04-09T01:36:52.631Z,100.00
2023-04-09T01:47:00.240Z,100.00
2023-04-09T01:57:08.339Z,100.00
2023-04-09T02:07:27.831Z,100.00
2023-04-09T02:17:32.948Z,100.00
2023-04-09T02:27:37.400Z,100.00
2023-04-09T02:37:39.940Z,100.00
2023-04-09T02:47:45.151Z,100.00
2023-04-09T02:57:47.604Z,100.00
2023-04-09T03:07:52.230Z,100.00
2023-04-09T03:17:54.412Z,100.00
2023-04-09T03:27:56.570Z,100.00
2023-04-09T03:38:15.617Z,100.00
2023-04-09T03:48:23.186Z,100.00
2023-04-09T03:58:33.970Z,100.00
2023-04-09T04:08:39.899Z,100.00
2023-04-09T04:18:42.439Z,100.00
2023-04-09T04:28:44.969Z,100.00
2023-04-09T04:38:58.626Z,100.00
2023-04-09T04:49:26.883Z,100.00
2023-04-09T04:59:30.194Z,100.00
2023-04-09T05:09:43.167Z,100.00
2023-04-09T05:19:51.552Z,100.00
2023-04-09T05:30:00.670Z,100.00
2023-04-09T05:40:03.605Z,100.00
2023-04-09T05:50:06.761Z,100.00
2023-04-09T06:00:15.451Z,100.00
2023-04-09T06:10:22.629Z,100.00
2023-04-09T06:20:25.108Z,100.00
2023-04-09T06:30:32.358Z,100.00
2023-04-09T06:40:34.489Z,100.00
2023-04-09T06:50:39.361Z,100.00
2023-04-09T07:00:45.243Z,100.00
2023-04-09T07:10:47.977Z,100.00
2023-04-09T07:20:55.530Z,100.00
2023-04-09T07:30:57.736Z,100.00
2023-04-09T07:40:59.865Z,100.00
2023-04-09T07:51:04.805Z,100.00
2023-04-09T08:01:06.979Z,100.00
2023-04-09T08:11:09.216Z,100.00
2023-04-09T08:21:13.551Z,100.00
2023-04-09T08:31:18.124Z,100.00
2023-04-09T08:41:29.683Z,89.53
2023-04-09T08:51:32.261Z,91.18
2023-04-09T09:01:34.600Z,89.01
2023-04-09T09:11:44.609Z,90.02
2023-04-09T09:21:56.638Z,86.13
2023-04-09T09:31:58.825Z,84.94
2023-04-09T09:42:08.693Z,83.31
2023-04-09T09:52:15.654Z,84.86
2023-04-09T10:02:27.150Z,83.13
2023-04-09T10:12:36.741Z,83.35
2023-04-09T10:22:39.501Z,82.01
2023-04-09T10:32:44.833Z,81.52
2023-04-09T10:42:52.454Z,78.02
2023-04-09T10:53:05.118Z,76.60
2023-04-09T11:03:26.072Z,80.55
2023-04-09T11:13:32.227Z,78.46
2023-04-09T11:23:36.543Z,77.03
2023-04-09T11:33:38.843Z,74.69
2023-04-09T11:43:50.489Z,73.23
2023-04-09T11:53:52.685Z,73.54
2023-04-09T12:03:57.926Z,71.72
2023-04-09T12:14:05.919Z,68.66
2023-04-09T12:24:08.264Z,68.54
2023-04-09T12:34:15.373Z,68.68
2023-04-09T12:44:17.462Z,67.18
2023-04-09T12:54:20.957Z,66.17
2023-04-09T13:04:23.471Z,67.70
2023-04-09T13:14:25.669Z,100.00
2023-04-09T13:24:28.028Z,100.00
2023-04-09T13:34:33.190Z,100.00
2023-04-09T13:44:37.840Z,100.00
2023-04-09T13:54:40.137Z,100.00
2023-04-09T14:04:44.804Z,100.00
2023-04-09T14:14:50.207Z,100.00
2023-04-09T14:24:52.372Z,100.00
2023-04-09T14:34:54.551Z,100.00
2023-04-09T14:44:58.867Z,100.00
2023-04-09T14:55:01.208Z,100.00
2023-04-09T15:05:04.062Z,100.00
2023-04-09T15:15:09.705Z,100.00
2023-04-09T15:25:14.175Z,100.00
2023-04-09T15:35:25.252Z,100.00
2023-04-09T15:45:27.346Z,100.00
2023-04-09T15:55:29.635Z,100.00
2023-04-09T16:05:31.781Z,100.00
2023-04-09T16:15:36.309Z,100.00
2023-04-09T16:25:40.669Z,100.00
2023-04-09T16:35:43.106Z,100.00
2023-04-09T16:45:48.767Z,100.00
2023-04-09T16:55:50.992Z,100.00
2023-04-09T17:05:57.483Z,100.00
2023-04-09T17:16:03.025Z,100.00
2023-04-09T17:26:07.639Z,100.00
2023-04-09T17:36:12.607Z,100.00
2023-04-09T17:46:14.896Z,100.00
2023-04-09T17:56:17.534Z,100.00
2023-04-09T18:06:19.639Z,100.00
2023-04-09T18:16:23.490Z,100.00
2023-04-09T18:26:31.750Z,100.00
2023-04-09T18:36:35.782Z,100.00
2023-04-09T18:46:38.085Z,100.00
2023-04-09T18:56:41.222Z,100.00
2023-04-09T19:06:46.469Z,100.00
2023-04-09T19:16:49.615Z,100.00
2023-04-09T19:26:54.500Z,100.00
2023-04-09T19:36:59.238Z,100.00
2023-04-09T19:47:08.830Z,100.00
2023-04-09T19:57:11.170Z,100.00
2023-04-09T20:07:16.869Z,100.00
2023-04-09T20:17:21.629Z,100.00
2023-04-09T20:27:26.534Z,100.00
2023-04-09T20:37:32.542Z,100.00
2023-04-09T20:47:35.014Z,100.00
2023-04-09T20:57:39.666Z,100.00
2023-04-09T21:07:41.959Z,100.00
2023-04-09T21:17:48.733Z,100.00
2023-04-09T21:27:50.939Z,100.00
2023-04-09T21:37:53.330Z,100.00
2023-04-09T21:48:00.634Z,100.00
2023-04-09T21:58:09.544Z,100.00
2023-04-09T22:08:13.397Z,100.00
2023-04-09T22:18:17.847Z,100.00
2023-04-09T22:28:22.774Z,100.00
2023-04-09T22:38:27.437Z,100.00
2023-04-09T22:48:35.879Z,100.00
2023-04-09T22:58:46.220Z,100.00
2023-04-09T23:08:51.130Z,100.00
2023-04-09T23:18:53.515Z,100.00
2023-04-09T23:28:56.093Z,100.00
2023-04-09T23:38:58.256Z,100.00
2023-04-09T23:49:02.613Z,100.00
2023-04-09T23:59:09.383Z,100.00
